Harrisburg, AR

6:30 PM CST on January 22, 2017 (GMT -0600)
MD3006 | | Change Station
Active Advisory: Wind Advisory

Elev 245 ft 35.67 °N, 90.71 °W | Updated 12 minutes ago

Overcast
Overcast
58.0 °F
Feels Like 58.0 °F
N
7.0
Wind Variable Wind from WNW

Today
High -- | Low -- °F
--% Chance of Precip.
Yesterday
High -- | Low -- °F
Precip. -- in
Pressure 29.44 in
Visibility 7.0 miles
Clouds Few 900 ft
Mostly Cloudy 1700 ft
Overcast 3200 ft
Dew Point 55 °F
Humidity 91%
Rainfall 0.19 in
Snow Depth Not available.
7:08 AM 5:20 PM
Waning Crescent, 22% visible
SPECI KJBR 230026Z AUTO 33011G24KT 7SM -RA FEW009 BKN017 OVC032 13/11 A2944 RMK AO2 P0004 T01280111
Pressure 29.44 in
Visibility 7.0 miles
Clouds Few 900 ft
Mostly Cloudy 1700 ft
Overcast 3200 ft
Dew Point 55 °F
Humidity 91%
Rainfall 0.19 in
Snow Depth Not available.
7:08 AM 5:20 PM
Waning Crescent, 22% visible
SPECI KJBR 230026Z AUTO 33011G24KT 7SM -RA FEW009 BKN017 OVC032 13/11 A2944 RMK AO2 P0004 T01280111

Get Your Daily Forecast Email!

Thanks for signing up!

Be on the lookout for a verification email in your inbox.

You'll start receiving the daily forecast at 8 AM.

×

10-Day Weather Forecast

Almanac

Astronomy

Jan. 22, 2017 Rise Set
Actual Time
Civil Twilight
Nautical Twilight
Astronomical Twilight
Moon
Length of Visible Light
Length of Day
Tomorrow will be .
, % of the Moon is Illuminated

Today's Extremes

State Highs State Lows

Community

WunderPhotos

Upload Photos

1,962,540 photos uploaded!

WunderBlog® & News

Nearby

Air Quality

  Air Quality AQ Index Pollutant
Not available.

Snow Depth

Station Depth Elevation

Earthquake Activity

City Distance Mag. Time & Date
Minimum magnitude displayed is 2.5.

Coastal Water Temperatures

Place Temperature

Stations

Nearby Weather Stations

Station Location Temp. Windchill Dew Point Humidity Wind Precip. Elev Updated Type
                   

Watches & Warnings

Wind Advisory
Issued: 3:38 PM CST Jan. 22, 2017 – National Weather Service

... Wind Advisory remains in effect until 3 am CST Monday...

* winds... northwest winds around 25 mph... gusting to 35 mph.

* Timing... 3 PM today through 3 am tonight.

* Impacts... strong winds may cause hazardous driving
conditions... especially for high profile vehicles.

Precautionary/preparedness actions...

A Wind Advisory means that sustained winds of 25 to 39 mph are
expected... or gusts will range between 40 and 57 mph. Winds this
strong can make driving difficult... especially for high profile
vehicles. Use extra caution.



Ac3